createdAt,value
2022-08-03T00:28:10.148Z,25.87
2022-08-03T00:57:01.015Z,25.83
2022-08-03T01:25:45.346Z,25.8
2022-08-03T01:54:32.317Z,25.78
2022-08-03T02:23:17.769Z,25.71
2022-08-03T02:52:16.394Z,25.68
2022-08-03T03:20:34.049Z,25.6
2022-08-03T03:49:28.905Z,25.58
2022-08-03T04:18:12.318Z,25
2022-08-03T04:46:58.656Z,24.86
2022-08-03T05:15:48.157Z,24.87
2022-08-03T05:44:30.945Z,25.33
2022-08-03T06:13:05.012Z,25.34
2022-08-03T06:41:46.967Z,25.84
2022-08-03T07:10:29.714Z,26.04
2022-08-03T07:39:16.043Z,26.13
2022-08-03T08:07:30.984Z,26.1
2022-08-03T08:36:02.691Z,26.12
2022-08-03T09:04:32.621Z,26.15
2022-08-03T09:33:08.962Z,26.19
2022-08-03T10:01:42.308Z,26.17
2022-08-03T10:30:13.546Z,26.17
2022-08-03T10:58:58.782Z,26.12
2022-08-03T11:27:19.743Z,26.11
2022-08-03T11:55:41.991Z,26.11
2022-08-03T12:24:05.960Z,26.14
2022-08-03T12:52:39.945Z,26.16
2022-08-03T13:21:10.317Z,26.21
2022-08-03T13:49:39.662Z,26.23
2022-08-03T14:18:28.068Z,26.3
2022-08-03T14:46:40.457Z,26.33
2022-08-03T15:15:21.901Z,26.37
2022-08-03T15:43:54.862Z,26.42
2022-08-03T16:12:39.214Z,26.46
2022-08-03T16:41:17.130Z,26.51
2022-08-03T17:09:56.557Z,26.57
2022-08-03T17:38:23.350Z,26.6
2022-08-03T18:06:56.830Z,26.64
2022-08-03T18:35:15.611Z,26.64
2022-08-03T19:03:49.649Z,26.65
2022-08-03T19:32:26.465Z,26.68
2022-08-03T20:01:19.094Z,26.67
2022-08-03T20:58:04.564Z,26.6
2022-08-03T21:13:11.518Z,26.65
2022-08-03T21:26:49.215Z,26.59
2022-08-03T21:55:26.081Z,26.57
2022-08-03T22:24:01.185Z,26.48
2022-08-03T22:52:42.104Z,26.43
2022-08-03T23:21:54.123Z,26.51
2022-08-03T23:49:53.376Z,26.45
